Time;durP1;ratioP1;P1;durP2;ratioP2;P2;SDS_P1;SDS_P2;PMS_P1;PMS_P2;Temp;Humidity;BMP_temperature;BMP_pressure;BME280_temperature;BME280_humidity;BME280_pressure;Samples;Min_cycle;Max_cycle;Signal;HPM_P1;HPM_P2
2022/03/25 00:01:08;;;;;;;90.07;39.30;;;;;;;8.55;86.03;102922.56;5011809;28;20034;-55
2022/03/25 00:03:33;;;;;;;94.00;39.90;;;;;;;8.39;87.23;102925.28;5012468;28;20026;-55
2022/03/25 00:05:59;;;;;;;91.10;38.05;;;;;;;8.38;88.65;102930.72;5012702;28;20373;-55
2022/03/25 00:08:24;;;;;;;81.60;37.25;;;;;;;8.34;88.08;102926.53;5011711;28;20035;-55
2022/03/25 00:10:49;;;;;;;89.13;38.90;;;;;;;8.35;86.91;102928.22;5012889;28;20140;-54
2022/03/25 00:13:15;;;;;;;97.68;38.53;;;;;;;8.34;86.79;102934.53;5012335;28;20060;-55
2022/03/25 00:15:40;;;;;;;86.65;37.97;;;;;;;8.35;86.91;102929.13;4992268;28;20421;-55
2022/03/25 00:18:05;;;;;;;94.57;38.03;;;;;;;8.37;88.06;102931.69;5011341;28;20025;-55
2022/03/25 00:20:30;;;;;;;83.55;37.95;;;;;;;8.31;86.62;102935.56;5024367;28;20043;-55
2022/03/25 00:22:56;;;;;;;85.22;37.97;;;;;;;8.28;86.34;102942.88;5013485;28;20406;-55
2022/03/25 00:25:21;;;;;;;83.90;37.47;;;;;;;8.24;86.71;102931.56;4998411;28;20069;-55
2022/03/25 00:27:46;;;;;;;87.68;36.97;;;;;;;8.24;87.11;102933.38;4991155;28;20129;-55
2022/03/25 00:30:12;;;;;;;88.93;37.25;;;;;;;8.24;87.50;102931.56;5008854;28;20029;-54
2022/03/25 00:32:37;;;;;;;81.55;36.25;;;;;;;8.22;86.35;102928.16;4999198;28;20112;-54
2022/03/25 00:35:04;;;;;;;84.22;36.95;;;;;;;8.27;85.73;102939.38;5005664;28;20029;-54
2022/03/25 00:37:30;;;;;;;76.47;35.53;;;;;;;8.21;85.56;102927.31;4992964;28;20101;-54
2022/03/25 00:39:55;;;;;;;87.00;36.60;;;;;;;8.22;86.34;102928.16;4994823;28;20120;-55
2022/03/25 00:42:20;;;;;;;84.43;35.35;;;;;;;8.14;85.44;102933.94;5012694;28;20051;-55
2022/03/25 00:44:47;;;;;;;88.47;38.05;;;;;;;8.18;86.56;102929.28;5010220;28;20499;-55
2022/03/25 00:47:12;;;;;;;86.45;35.70;;;;;;;8.11;86.44;102928.81;5011431;28;20171;-55
2022/03/25 00:49:37;;;;;;;78.65;35.63;;;;;;;8.03;85.93;102929.28;5011835;28;20442;-55
2022/03/25 00:52:03;;;;;;;76.97;36.25;;;;;;;7.97;85.93;102929.63;5000756;28;20329;-55
2022/03/25 00:54:28;;;;;;;80.60;36.10;;;;;;;7.94;86.13;102929.84;5005677;28;20056;-55
2022/03/25 00:56:54;;;;;;;85.45;36.08;;;;;;;7.90;86.94;102922.13;5012671;28;20308;-55
2022/03/25 00:59:20;;;;;;;85.07;36.60;;;;;;;7.88;86.94;102927.53;5012174;28;20420;-56
2022/03/25 01:01:46;;;;;;;78.00;36.42;;;;;;;7.85;87.46;102923.25;5005578;28;20029;-54
2022/03/25 01:04:11;;;;;;;92.85;36.75;;;;;;;7.84;87.76;102931.31;5012246;28;20469;-54
2022/03/25 01:06:37;;;;;;;86.80;36.83;;;;;;;7.78;87.17;102921.91;5009692;28;20025;-54
2022/03/25 01:09:03;;;;;;;81.38;34.38;;;;;;;7.76;88.23;102926.47;4993395;28;20222;-54
2022/03/25 01:11:28;;;;;;;84.85;35.53;;;;;;;7.73;87.98;102929.31;4992070;28;20211;-53
2022/03/25 01:13:54;;;;;;;81.63;34.58;;;;;;;7.68;87.11;102926.06;5013288;28;20116;-54
2022/03/25 01:16:20;;;;;;;75.10;33.58;;;;;;;7.66;87.38;102923.50;5008318;28;20416;-54
2022/03/25 01:18:45;;;;;;;81.15;34.30;;;;;;;7.58;87.95;102916.91;5012230;28;20116;-55
2022/03/25 01:21:10;;;;;;;81.43;33.92;;;;;;;7.59;86.45;102921.31;5007260;28;20306;-54
2022/03/25 01:23:36;;;;;;;76.88;34.55;;;;;;;7.53;87.60;102926.97;5007112;28;20429;-54
2022/03/25 01:26:03;;;;;;;85.35;35.55;;;;;;;7.50;87.93;102927.16;4995448;28;20030;-54
2022/03/25 01:28:34;;;;;;;73.57;34.97;;;;;;;7.44;86.94;102931.03;4996752;28;20087;-54
2022/03/25 01:31:00;;;;;;;81.43;35.27;;;;;;;7.38;87.64;102932.25;4998273;28;20021;-54
2022/03/25 01:33:27;;;;;;;80.30;34.42;;;;;;;7.26;88.43;102927.63;5002817;28;20790;-54
2022/03/25 01:35:52;;;;;;;78.95;33.75;;;;;;;7.19;88.72;102928.91;5016195;28;20392;-54
2022/03/25 01:38:18;;;;;;;76.18;33.53;;;;;;;7.16;88.88;102929.09;5015892;28;20033;-54
2022/03/25 01:40:43;;;;;;;85.75;35.60;;;;;;;7.14;89.68;102926.50;5016728;28;20159;-54
2022/03/25 01:43:08;;;;;;;76.70;33.83;;;;;;;7.10;88.83;102923.19;5013450;28;20463;-55
2022/03/25 01:45:36;;;;;;;75.75;32.67;;;;;;;7.08;88.27;102918.91;5013046;28;20029;-53
2022/03/25 01:48:07;;;;;;;76.20;33.03;;;;;;;7.04;87.89;102920.88;5011265;28;20172;-53
2022/03/25 01:50:32;;;;;;;69.87;31.57;;;;;;;7.05;87.33;102921.75;4996072;28;20032;-54
2022/03/25 01:52:58;;;;;;;73.32;31.50;;;;;;;7.02;86.66;102921.91;4996722;28;20217;-55
2022/03/25 01:55:28;;;;;;;70.82;31.25;;;;;;;7.00;86.23;102929.09;5002251;28;20030;-55
2022/03/25 01:57:58;;;;;;;65.40;29.27;;;;;;;6.91;85.71;102926.03;5015028;28;20083;-54
2022/03/25 02:00:24;;;;;;;69.00;30.70;;;;;;;6.88;86.06;102920.88;5011433;28;20475;-54
2022/03/25 02:02:50;;;;;;;66.88;29.95;;;;;;;6.93;89.20;102923.28;4996017;28;20061;-54
2022/03/25 02:05:17;;;;;;;69.82;30.05;;;;;;;6.84;85.91;102918.47;5005656;28;20033;-55
2022/03/25 02:07:43;;;;;;;66.72;29.58;;;;;;;6.88;86.55;102920.88;5000656;28;20041;-55
2022/03/25 02:10:08;;;;;;;62.78;29.73;;;;;;;6.82;86.07;102913.28;5000368;28;20022;-55
2022/03/25 02:12:35;;;;;;;65.45;29.70;;;;;;;6.83;86.87;102911.47;5015797;28;20028;-55
2022/03/25 02:15:01;;;;;;;67.95;30.25;;;;;;;6.77;85.61;102910.00;4983571;28;20022;-55
2022/03/25 02:17:27;;;;;;;69.75;30.20;;;;;;;6.77;85.77;102912.66;4993335;28;20037;-54
2022/03/25 02:19:52;;;;;;;68.50;28.85;;;;;;;6.77;86.83;102912.66;5007253;28;20492;-55
2022/03/25 02:22:17;;;;;;;61.42;29.30;;;;;;;6.76;86.24;102918.06;5015143;28;20032;-55
2022/03/25 02:24:43;;;;;;;68.10;30.35;;;;;;;6.75;85.68;102922.50;5015358;28;20048;-55
2022/03/25 02:27:11;;;;;;;57.00;28.30;;;;;;;6.72;86.22;102915.56;5010415;28;20026;-55
2022/03/25 02:29:38;;;;;;;71.78;30.90;;;;;;;6.68;86.91;102910.50;5015277;28;20534;-55
2022/03/25 02:32:04;;;;;;;71.72;29.23;;;;;;;6.72;86.65;102909.38;4997466;28;20026;-55
2022/03/25 02:34:29;;;;;;;65.43;28.40;;;;;;;6.68;86.28;102908.69;4995135;28;20053;-53
2022/03/25 02:36:55;;;;;;;69.47;28.88;;;;;;;6.65;84.94;102910.66;5004396;28;20103;-53
2022/03/25 02:39:22;;;;;;;63.80;30.10;;;;;;;6.62;86.34;102908.19;5006207;28;20515;-56
2022/03/25 02:41:47;;;;;;;66.05;29.15;;;;;;;6.59;86.64;102905.72;5012126;28;20172;-55
2022/03/25 02:44:12;;;;;;;72.72;30.20;;;;;;;6.53;86.23;102910.41;4993692;28;20061;-55
2022/03/25 02:46:38;;;;;;;66.38;29.55;;;;;;;6.46;85.30;102911.66;4993176;28;20558;-55
2022/03/25 02:49:04;;;;;;;63.45;29.23;;;;;;;6.42;86.47;102915.44;4995599;28;20488;-54
2022/03/25 02:51:29;;;;;;;63.60;29.05;;;;;;;6.39;86.65;102915.59;4994267;28;20721;-55
2022/03/25 02:53:55;;;;;;;64.28;29.40;;;;;;;6.38;85.87;102915.69;5013949;28;20108;-54
2022/03/25 02:56:21;;;;;;;60.78;28.52;;;;;;;6.34;85.73;102920.31;5013771;28;20137;-55
2022/03/25 02:58:46;;;;;;;66.15;29.02;;;;;;;6.29;85.80;102909.06;5014016;28;20017;-55
2022/03/25 03:01:13;;;;;;;65.47;29.67;;;;;;;6.23;85.08;102920.88;4996596;28;20190;-54
2022/03/25 03:03:40;;;;;;;61.45;28.35;;;;;;;6.12;85.43;102912.63;5007531;28;20578;-54
2022/03/25 03:06:06;;;;;;;71.65;29.63;;;;;;;6.06;85.98;102920.91;5003969;28;20073;-55
2022/03/25 03:08:31;;;;;;;67.60;29.67;;;;;;;5.94;86.05;102922.34;4999219;28;20064;-55
2022/03/25 03:10:57;;;;;;;72.38;29.80;;;;;;;5.88;86.13;102922.69;5007682;28;20037;-55
2022/03/25 03:13:23;;;;;;;64.85;29.33;;;;;;;5.79;86.25;102924.03;5014036;28;20033;-55
2022/03/25 03:15:49;;;;;;;75.10;30.10;;;;;;;5.78;86.48;102919.66;5011092;28;20033;-55
2022/03/25 03:18:15;;;;;;;68.50;29.23;;;;;;;5.78;87.01;102928.44;4994851;28;20026;-54
2022/03/25 03:20:42;;;;;;;68.13;28.73;;;;;;;5.78;86.14;102923.16;4994043;28;20396;-55
2022/03/25 03:23:08;;;;;;;61.03;28.35;;;;;;;5.81;87.71;102922.16;4994864;28;20036;-54
2022/03/25 03:25:34;;;;;;;69.25;28.55;;;;;;;5.78;87.10;102909.03;5004910;28;20116;-54
2022/03/25 03:28:00;;;;;;;65.95;29.90;;;;;;;5.78;86.51;102914.34;4997685;28;20400;-55
2022/03/25 03:30:26;;;;;;;70.28;28.90;;;;;;;5.77;86.56;102917.91;4992372;28;20025;-54
2022/03/25 03:32:55;;;;;;;65.50;29.13;;;;;;;5.77;85.91;102918.81;5011557;28;20029;-55
2022/03/25 03:35:21;;;;;;;63.33;28.40;;;;;;;5.71;85.81;102912.94;5001339;28;20370;-55
2022/03/25 03:37:46;;;;;;;67.13;29.75;;;;;;;5.66;86.12;102920.28;4994636;28;20131;-55
2022/03/25 03:40:14;;;;;;;68.97;29.05;;;;;;;5.58;87.03;102918.88;4998703;28;20036;-54
2022/03/25 03:42:40;;;;;;;66.82;29.05;;;;;;;5.56;86.96;102920.72;5005137;28;20070;-55
2022/03/25 03:45:07;;;;;;;66.43;29.27;;;;;;;5.52;87.78;102913.88;5009382;28;20143;-54
2022/03/25 03:47:32;;;;;;;67.03;29.30;;;;;;;5.49;87.32;102913.19;5008827;28;20111;-54
2022/03/25 03:49:58;;;;;;;62.95;28.67;;;;;;;5.47;87.43;102915.06;4993576;28;20145;-54
2022/03/25 03:52:23;;;;;;;66.43;29.23;;;;;;;5.40;87.20;102915.34;4996853;28;20017;-54
2022/03/25 03:54:49;;;;;;;66.68;29.10;;;;;;;5.40;87.44;102918.00;5013559;28;20383;-53
2022/03/25 03:57:14;;;;;;;66.93;28.88;;;;;;;5.39;87.90;102910.13;5011081;28;20675;-53
2022/03/25 03:59:40;;;;;;;67.53;28.88;;;;;;;5.35;87.64;102917.38;5012198;28;20068;-53
2022/03/25 04:02:07;;;;;;;69.00;29.27;;;;;;;5.30;87.16;102911.44;4998844;28;20097;-54
2022/03/25 04:04:33;;;;;;;63.67;29.17;;;;;;;5.31;87.86;102923.78;5008576;28;20025;-54
2022/03/25 04:07:00;;;;;;;68.30;28.98;;;;;;;5.30;88.85;102926.50;4993366;28;20049;-55
2022/03/25 04:09:26;;;;;;;65.97;27.88;;;;;;;5.27;88.02;102924.84;4993611;28;20598;-54
2022/03/25 04:11:51;;;;;;;64.38;28.58;;;;;;;5.27;87.99;102916.88;5003114;28;20120;-55
2022/03/25 04:14:16;;;;;;;63.70;29.20;;;;;;;5.20;87.89;102934.03;5013536;28;20381;-55
2022/03/25 04:16:41;;;;;;;69.68;29.10;;;;;;;5.12;87.74;102931.72;4999332;28;20039;-55
2022/03/25 04:19:07;;;;;;;64.07;28.08;;;;;;;5.04;89.26;102928.59;4994082;28;20349;-55
2022/03/25 04:21:32;;;;;;;65.18;29.73;;;;;;;4.97;89.54;102929.81;4993031;28;20463;-55
2022/03/25 04:23:57;;;;;;;62.92;27.38;;;;;;;4.92;89.19;102937.13;4994040;28;20049;-55
2022/03/25 04:26:24;;;;;;;72.20;30.27;;;;;;;4.84;89.48;102935.69;4993261;28;20030;-54
2022/03/25 04:28:50;;;;;;;63.90;28.55;;;;;;;4.83;90.05;102941.91;4993226;28;20040;-56
2022/03/25 04:31:15;;;;;;;70.13;30.33;;;;;;;4.79;90.67;102935.06;5005792;28;20381;-55
2022/03/25 04:33:40;;;;;;;74.43;29.98;;;;;;;4.80;89.80;102939.44;5013051;28;20060;-55
2022/03/25 04:36:06;;;;;;;66.60;29.17;;;;;;;4.81;90.01;102940.28;5008659;28;20456;-54
2022/03/25 04:38:31;;;;;;;71.97;29.05;;;;;;;4.80;89.39;102942.09;5007122;28;20025;-54
2022/03/25 04:40:57;;;;;;;69.82;30.15;;;;;;;4.77;89.29;102939.56;4998719;28;20022;-54
2022/03/25 04:43:22;;;;;;;67.53;28.85;;;;;;;4.73;89.01;102945.91;4994448;28;20377;-55
2022/03/25 04:45:48;;;;;;;69.47;29.77;;;;;;;4.69;89.54;102938.22;4996459;28;20072;-55
2022/03/25 04:48:14;;;;;;;75.20;30.77;;;;;;;4.65;89.97;102942.75;5008516;28;20033;-55
2022/03/25 04:50:40;;;;;;;71.28;30.20;;;;;;;4.57;90.31;102937.84;5012473;28;20079;-54
2022/03/25 04:53:05;;;;;;;63.25;29.50;;;;;;;4.51;90.90;102937.25;5013092;28;20500;-55
2022/03/25 04:55:31;;;;;;;62.75;29.45;;;;;;;4.48;91.32;102943.53;5012658;28;20033;-55
2022/03/25 04:57:56;;;;;;;66.32;29.88;;;;;;;4.41;91.07;102940.34;5013389;28;20087;-54
2022/03/25 05:00:22;;;;;;;72.28;30.20;;;;;;;4.37;91.73;102941.38;5011113;28;20407;-52
2022/03/25 05:02:47;;;;;;;76.00;30.90;;;;;;;4.34;91.60;102941.53;4997151;28;20034;-54
2022/03/25 05:05:13;;;;;;;71.07;30.90;;;;;;;4.35;92.83;102939.75;4991764;28;20215;-54
2022/03/25 05:07:43;;;;;;;66.82;30.02;;;;;;;4.35;92.21;102937.97;4991787;28;20030;-55
2022/03/25 05:10:10;;;;;;;75.80;31.65;;;;;;;4.27;92.36;102937.44;4996752;28;20029;-54
2022/03/25 05:12:36;;;;;;;79.32;31.60;;;;;;;4.20;92.39;102936.00;5001297;28;20121;-54
2022/03/25 05:15:01;;;;;;;75.30;30.90;;;;;;;4.17;93.66;102946.72;5001440;28;20116;-54
2022/03/25 05:17:26;;;;;;;74.28;30.65;;;;;;;4.09;94.39;102947.03;5013081;28;20032;-54
2022/03/25 05:19:51;;;;;;;74.80;31.75;;;;;;;3.99;95.32;102951.88;5011263;28;20352;-54
2022/03/25 05:22:17;;;;;;;77.53;33.15;;;;;;;3.86;97.13;102942.75;5004973;28;20099;-54
2022/03/25 05:24:42;;;;;;;73.07;31.38;;;;;;;3.87;96.95;102949.75;5011756;28;20045;-53
2022/03/25 05:27:07;;;;;;;78.05;31.88;;;;;;;3.91;96.76;102949.56;4992657;28;20033;-55
2022/03/25 05:29:32;;;;;;;74.93;31.92;;;;;;;3.97;96.46;102947.56;4991752;28;20532;-55
2022/03/25 05:31:58;;;;;;;79.40;31.65;;;;;;;4.00;96.37;102948.28;4991712;28;20017;-55
2022/03/25 05:34:23;;;;;;;84.18;32.47;;;;;;;4.04;96.38;102952.53;4992939;28;20621;-55
2022/03/25 05:36:48;;;;;;;76.38;31.63;;;;;;;4.03;95.91;102945.53;5006011;28;20057;-55
2022/03/25 05:39:15;;;;;;;76.78;31.83;;;;;;;4.10;95.34;102948.75;5012779;28;20045;-53
2022/03/25 05:41:41;;;;;;;71.65;31.75;;;;;;;4.16;95.59;102958.19;5026920;28;20026;-54
2022/03/25 05:44:06;;;;;;;78.45;32.58;;;;;;;4.22;95.51;102953.50;5012045;28;20029;-55
2022/03/25 05:46:32;;;;;;;85.18;32.70;;;;;;;4.24;95.04;102959.59;4996165;28;20532;-54
2022/03/25 05:48:58;;;;;;;81.38;33.38;;;;;;;4.27;94.74;102955.94;5012356;28;20010;-54
2022/03/25 05:51:23;;;;;;;82.68;34.15;;;;;;;4.26;94.76;102957.75;5002071;28;20032;-53
2022/03/25 05:53:49;;;;;;;78.68;33.22;;;;;;;4.32;94.87;102961.91;4993332;28;20179;-53
2022/03/25 05:56:14;;;;;;;80.65;33.92;;;;;;;4.36;94.22;102958.22;5001399;28;20077;-54
2022/03/25 05:58:40;;;;;;;84.18;34.58;;;;;;;4.36;94.45;102965.25;4997011;28;20068;-54
2022/03/25 06:01:07;;;;;;;89.47;34.85;;;;;;;4.39;94.21;102963.34;5009610;28;20476;-55
2022/03/25 06:03:33;;;;;;;85.97;35.80;;;;;;;4.38;94.48;102959.00;5012163;28;20506;-54
2022/03/25 06:05:59;;;;;;;85.45;35.10;;;;;;;4.43;94.53;102959.63;5007017;28;20029;-55
2022/03/25 06:08:24;;;;;;;87.15;36.70;;;;;;;4.46;94.52;102962.16;4996282;28;20022;-53
2022/03/25 06:10:50;;;;;;;85.95;36.58;;;;;;;4.48;94.62;102965.59;4995727;28;20025;-53
2022/03/25 06:13:16;;;;;;;88.95;36.70;;;;;;;4.49;94.41;102964.63;4995563;28;20088;-52
2022/03/25 06:15:41;;;;;;;87.82;36.67;;;;;;;4.52;94.87;102973.38;4993864;28;20072;-54
2022/03/25 06:18:07;;;;;;;96.93;37.20;;;;;;;4.44;95.10;102971.94;4997925;28;20453;-54
2022/03/25 06:20:32;;;;;;;86.63;35.10;;;;;;;4.47;95.93;102982.38;5011783;28;20029;-53
2022/03/25 06:22:58;;;;;;;86.60;36.72;;;;;;;4.53;97.37;102985.69;5003926;28;20092;-54
2022/03/25 06:25:23;;;;;;;89.75;38.28;;;;;;;4.60;96.83;102984.47;5008175;28;20155;-54
2022/03/25 06:27:53;;;;;;;87.35;38.42;;;;;;;4.62;97.26;102988.78;5013645;28;20569;-54
2022/03/25 06:30:20;;;;;;;92.55;39.60;;;;;;;4.68;97.62;102990.28;5003960;28;20021;-54
2022/03/25 06:32:46;;;;;;;103.93;39.78;;;;;;;4.74;96.05;102984.72;5011722;28;20056;-54
2022/03/25 06:35:12;;;;;;;100.97;41.58;;;;;;;4.80;96.36;102984.44;5003145;28;20549;-54
2022/03/25 06:37:37;;;;;;;113.55;42.65;;;;;;;4.83;96.05;102994.88;4995454;28;20483;-53
2022/03/25 06:40:07;;;;;;;101.93;43.35;;;;;;;4.87;96.89;102990.28;5005288;28;20241;-52
2022/03/25 06:42:32;;;;;;;104.85;42.95;;;;;;;4.94;97.12;102997.03;5015132;28;20030;-54
2022/03/25 06:44:58;;;;;;;103.45;44.42;;;;;;;4.95;96.57;102993.44;5012893;28;20075;-54
2022/03/25 06:47:23;;;;;;;104.53;42.67;;;;;;;5.05;96.04;103001.81;5014663;28;20498;-54
2022/03/25 06:49:48;;;;;;;114.53;45.92;;;;;;;5.10;97.38;103007.75;5011040;28;20045;-53
2022/03/25 06:52:14;;;;;;;106.18;44.95;;;;;;;5.14;96.82;103001.41;4997156;28;20668;-53
2022/03/25 06:54:40;;;;;;;117.85;49.58;;;;;;;5.17;96.96;103013.63;4996170;28;20025;-46
2022/03/25 06:57:06;;;;;;;118.07;48.33;;;;;;;5.18;97.23;103000.31;4992698;28;20045;-48
2022/03/25 06:59:32;;;;;;;112.18;47.47;;;;;;;5.29;97.69;102999.78;4994223;28;20665;-55
2022/03/25 07:01:57;;;;;;;112.30;47.53;;;;;;;5.38;96.71;103011.75;5000452;28;20551;-54
2022/03/25 07:04:23;;;;;;;120.15;48.60;;;;;;;5.44;96.34;103007.94;4996872;28;20037;-54
2022/03/25 07:06:49;;;;;;;121.03;49.20;;;;;;;5.50;96.61;103015.59;4993348;28;20531;-56
2022/03/25 07:09:15;;;;;;;115.50;48.03;;;;;;;5.58;96.18;103016.97;5007063;28;20021;-55
2022/03/25 07:11:41;;;;;;;131.90;50.55;;;;;;;5.67;96.87;103020.06;5003569;28;20037;-52
2022/03/25 07:14:06;;;;;;;128.20;48.55;;;;;;;5.78;97.49;103009.81;4993347;28;20550;-54
2022/03/25 07:16:31;;;;;;;118.55;51.45;;;;;;;5.88;97.25;103013.72;4992898;28;20156;-54
2022/03/25 07:18:59;;;;;;;132.82;52.00;;;;;;;5.97;97.12;103013.28;4994490;28;20121;-54
2022/03/25 07:21:24;;;;;;;124.57;51.97;;;;;;;6.08;97.01;103018.03;5009858;28;20025;-54
2022/03/25 07:23:50;;;;;;;124.18;51.63;;;;;;;6.18;96.02;103018.44;5003360;28;20087;-54
2022/03/25 07:26:17;;;;;;;116.78;48.58;;;;;;;6.26;94.24;103023.34;4993598;28;20026;-54
2022/03/25 07:28:42;;;;;;;122.68;52.00;;;;;;;6.30;95.03;103028.41;4992739;28;20018;-55
2022/03/25 07:31:07;;;;;;;127.57;52.33;;;;;;;6.31;94.84;103019.53;4995179;28;20052;-55
2022/03/25 07:33:33;;;;;;;118.38;51.65;;;;;;;6.45;94.97;103024.13;4999796;28;20243;-57
2022/03/25 07:36:00;;;;;;;123.32;50.78;;;;;;;6.57;94.18;103022.59;4997241;28;20541;-54
2022/03/25 07:38:26;;;;;;;129.05;52.70;;;;;;;6.69;93.74;103031.72;4994696;28;20338;-54
2022/03/25 07:40:51;;;;;;;130.25;55.55;;;;;;;6.80;92.95;103033.78;4993079;28;20700;-54
2022/03/25 07:43:17;;;;;;;120.45;52.03;;;;;;;6.89;91.90;103039.47;4993284;28;20026;-55
2022/03/25 07:45:42;;;;;;;123.78;53.45;;;;;;;6.98;91.69;103047.91;4991323;28;20052;-54
2022/03/25 07:48:07;;;;;;;120.13;51.97;;;;;;;7.08;92.12;103044.63;5008907;28;20022;-54
2022/03/25 07:50:33;;;;;;;127.32;54.58;;;;;;;7.24;91.88;103043.78;5012307;28;20072;-54
2022/03/25 07:52:58;;;;;;;116.50;51.92;;;;;;;7.43;90.33;103047.16;5013667;28;20029;-54
2022/03/25 07:55:23;;;;;;;116.03;50.33;;;;;;;7.54;88.73;103048.34;5012506;28;20013;-54
2022/03/25 07:57:49;;;;;;;122.40;52.45;;;;;;;7.68;89.83;103058.19;4997680;28;20074;-55
2022/03/25 08:00:15;;;;;;;124.50;51.65;;;;;;;7.79;88.01;103061.06;4994100;28;20079;-48
2022/03/25 08:02:42;;;;;;;116.35;51.03;;;;;;;7.94;88.40;103062.00;4992076;28;20034;-49
2022/03/25 08:05:11;;;;;;;114.90;51.53;;;;;;;8.11;86.58;103066.34;4997823;28;20088;-49
2022/03/25 08:07:54;;;;;;;121.57;53.53;;;;;;;8.29;86.47;103070.56;5013363;28;20187;-51
2022/03/25 08:10:25;;;;;;;111.47;51.10;;;;;;;8.38;85.56;103070.03;4999644;28;20017;-47
2022/03/25 08:12:53;;;;;;;124.07;53.97;;;;;;;8.48;85.15;103075.69;4999174;28;20129;-47
2022/03/25 08:15:18;;;;;;;120.63;51.65;;;;;;;8.57;84.73;103077.81;4991081;28;20026;-51
2022/03/25 08:17:56;;;;;;;124.00;55.40;;;;;;;8.68;84.35;103078.97;4992950;28;20088;-47
2022/03/25 08:20:28;;;;;;;117.75;54.90;;;;;;;8.76;83.57;103074.88;4990541;28;20466;-47
2022/03/25 08:22:56;;;;;;;112.53;51.85;;;;;;;8.95;82.76;103071.91;5009230;28;20350;-50
2022/03/25 08:28:06;;;;;;;115.47;53.35;;;;;;;9.30;81.51;103082.19;5012450;28;20049;-48
2022/03/25 08:30:32;;;;;;;116.78;52.50;;;;;;;9.44;80.36;103089.31;5010016;28;20029;-48
2022/03/25 08:32:59;;;;;;;120.18;53.33;;;;;;;9.52;79.72;103083.44;4994863;28;20034;-49
2022/03/25 08:35:25;;;;;;;109.70;53.30;;;;;;;9.59;78.50;103081.25;4993114;28;20580;-47
2022/03/25 08:37:51;;;;;;;114.80;52.10;;;;;;;9.76;78.80;103085.50;4997007;28;21328;-46
2022/03/25 08:40:16;;;;;;;112.28;50.60;;;;;;;9.95;77.66;103086.00;5000812;28;20014;-49
2022/03/25 08:42:41;;;;;;;104.78;49.55;;;;;;;10.17;75.50;103092.59;4992671;28;20082;-46
2022/03/25 08:45:07;;;;;;;102.68;46.22;;;;;;;10.27;71.43;103093.69;4991853;28;20046;-47
2022/03/25 08:47:32;;;;;;;98.10;45.67;;;;;;;10.42;70.63;103084.66;5003005;28;20183;-49
2022/03/25 08:49:58;;;;;;;95.40;45.55;;;;;;;10.55;71.26;103086.47;5013352;28;20028;-49
2022/03/25 08:52:24;;;;;;;96.78;42.83;;;;;;;10.73;69.21;103085.19;5013897;28;20029;-48
2022/03/25 08:54:49;;;;;;;93.18;42.05;;;;;;;10.91;67.04;103090.22;5010867;28;20037;-48
2022/03/25 08:57:14;;;;;;;98.85;43.28;;;;;;;11.05;65.87;103099.94;5006860;28;20771;-49
2022/03/25 08:59:40;;;;;;;97.22;44.55;;;;;;;11.09;63.99;103096.94;4995200;28;20091;-50
2022/03/25 09:02:06;;;;;;;94.75;43.35;;;;;;;11.20;64.41;103106.84;4999557;28;20155;-50
2022/03/25 09:04:31;;;;;;;96.45;43.65;;;;;;;11.30;63.74;103097.25;5009231;28;20034;-47
2022/03/25 09:06:57;;;;;;;92.00;41.60;;;;;;;11.45;62.93;103105.09;4994938;28;20045;-46
2022/03/25 09:09:22;;;;;;;89.38;41.63;;;;;;;11.56;61.39;103103.34;4994083;28;20045;-47
2022/03/25 09:11:48;;;;;;;85.45;40.88;;;;;;;11.79;60.83;103119.53;5008527;28;20078;-47
2022/03/25 09:14:14;;;;;;;85.68;40.65;;;;;;;11.91;58.68;103116.00;5006803;28;20104;-49
2022/03/25 09:16:40;;;;;;;86.53;42.03;;;;;;;12.02;59.02;103115.19;5005581;28;20026;-45
2022/03/25 09:19:05;;;;;;;87.53;40.65;;;;;;;12.16;57.98;103116.00;4993422;28;20517;-48
2022/03/25 09:21:30;;;;;;;89.28;44.17;;;;;;;12.25;58.61;103120.63;5007289;28;20712;-46
2022/03/25 09:23:55;;;;;;;87.63;38.78;;;;;;;12.31;56.62;103115.69;5013369;28;20069;-47
2022/03/25 09:26:21;;;;;;;92.32;42.03;;;;;;;12.34;56.32;103119.97;5012218;28;20022;-48
2022/03/25 09:28:46;;;;;;;88.30;41.92;;;;;;;12.43;57.42;103119.25;5011984;28;21099;-47
2022/03/25 09:31:12;;;;;;;89.75;42.85;;;;;;;12.58;56.50;103109.19;5011524;28;20052;-55
2022/03/25 09:33:37;;;;;;;87.78;43.25;;;;;;;12.64;54.97;103111.41;5011436;28;20049;-54
2022/03/25 09:36:03;;;;;;;91.47;44.28;;;;;;;12.71;55.95;103118.94;5012158;28;20049;-55
2022/03/25 09:38:28;;;;;;;86.97;42.45;;;;;;;12.85;55.14;103118.72;5012507;28;20837;-56
2022/03/25 09:40:57;;;;;;;85.10;43.95;;;;;;;12.88;54.96;103111.31;5014217;28;20417;-55
2022/03/25 09:43:22;;;;;;;86.50;44.10;;;;;;;12.99;53.26;103110.44;5016639;28;20026;-55
2022/03/25 09:45:48;;;;;;;88.28;44.58;;;;;;;13.02;52.02;103095.94;5008972;28;20034;-55
2022/03/25 09:48:13;;;;;;;90.45;44.00;;;;;;;13.06;52.47;103102.75;5012093;28;20022;-55
2022/03/25 09:50:40;;;;;;;82.45;40.90;;;;;;;13.19;52.88;103094.59;5009245;28;20029;-47
2022/03/25 09:53:06;;;;;;;80.03;42.35;;;;;;;13.31;52.56;103096.28;4996305;28;20124;-49
2022/03/25 09:55:36;;;;;;;76.00;39.13;;;;;;;13.55;51.59;103100.69;4999167;28;20030;-47
2022/03/25 09:58:01;;;;;;;78.40;39.53;;;;;;;13.70;50.98;103101.25;5015668;28;20091;-47
2022/03/25 10:00:27;;;;;;;74.88;39.42;;;;;;;13.92;50.90;103108.41;5010850;28;20056;-49
2022/03/25 10:02:52;;;;;;;86.88;38.88;;;;;;;14.01;50.07;103099.56;4998287;28;20061;-48
2022/03/25 10:05:20;;;;;;;81.60;38.92;;;;;;;14.12;49.27;103101.31;5015324;28;20053;-48
2022/03/25 10:07:48;;;;;;;78.82;37.70;;;;;;;14.20;49.13;103104.22;4999409;28;20030;-46
2022/03/25 10:10:25;;;;;;;76.78;36.28;;;;;;;14.28;50.20;103101.75;5006065;28;20025;-47
2022/03/25 10:13:00;;;;;;;75.97;37.85;;;;;;;14.49;49.50;103106.28;5016241;28;20022;-46
2022/03/25 10:15:28;;;;;;;75.20;36.30;;;;;;;14.58;48.82;103094.75;5003090;28;20356;-49
2022/03/25 10:17:56;;;;;;;75.07;36.13;;;;;;;14.70;48.79;103095.56;5013634;28;20506;-48
2022/03/25 10:20:31;;;;;;;70.20;33.05;;;;;;;14.87;46.38;103102.16;5014654;28;20029;-49
2022/03/25 10:23:00;;;;;;;78.43;34.42;;;;;;;15.03;47.12;103098.97;5015776;28;20048;-45
2022/03/25 10:25:49;;;;;;;60.50;28.98;;;;;;;15.20;46.81;103094.78;5012702;28;20031;-46
2022/03/25 10:28:20;;;;;;;52.28;26.40;;;;;;;15.35;44.30;103093.41;5015596;28;20535;-46
2022/03/25 10:30:52;;;;;;;54.70;26.90;;;;;;;15.49;44.72;103092.16;5011652;28;20325;-48
2022/03/25 10:33:28;;;;;;;49.97;26.30;;;;;;;15.63;44.36;103097.16;5015360;28;20528;-47
2022/03/25 10:36:04;;;;;;;58.20;27.40;;;;;;;15.75;43.88;103094.31;5015231;28;20161;-47
2022/03/25 10:38:48;;;;;;;57.38;27.92;;;;;;;15.84;45.34;103094.38;5014663;28;20365;-47
2022/03/25 10:41:17;;;;;;;53.00;27.45;;;;;;;15.86;43.54;103096.94;5015046;28;20044;-47
2022/03/25 10:44:05;;;;;;;57.25;26.75;;;;;;;15.90;44.44;103084.84;5014278;28;20035;-47
2022/03/25 10:46:39;;;;;;;58.42;26.33;;;;;;;16.00;42.95;103084.88;4999487;28;20060;-47
2022/03/25 10:49:07;;;;;;;64.65;28.27;;;;;;;16.06;41.82;103086.16;5010518;28;20310;-48
2022/03/25 10:51:34;;;;;;;62.28;30.02;;;;;;;16.22;43.86;103091.81;5000173;28;20119;-48
2022/03/25 10:54:03;;;;;;;60.85;29.95;;;;;;;16.31;41.91;103088.25;5010689;28;20045;-45
2022/03/25 10:56:40;;;;;;;56.10;28.45;;;;;;;16.22;41.90;103086.41;5012964;28;20048;-47
2022/03/25 10:59:26;;;;;;;60.22;29.67;;;;;;;16.29;43.69;103098.31;5006557;28;20823;-50
2022/03/25 11:01:53;;;;;;;66.75;30.65;;;;;;;16.46;44.18;103093.19;5014439;28;20041;-48
2022/03/25 11:04:19;;;;;;;68.40;33.05;;;;;;;16.61;42.72;103083.66;5017717;28;20093;-50
2022/03/25 11:06:46;;;;;;;56.45;30.05;;;;;;;16.57;42.80;103080.38;5017284;28;20105;-50
2022/03/25 11:09:13;;;;;;;58.53;28.45;;;;;;;16.63;41.76;103078.09;5017312;28;20104;-46
2022/03/25 11:11:40;;;;;;;59.78;30.02;;;;;;;16.64;42.61;103080.66;5014092;28;20079;-49
2022/03/25 11:14:07;;;;;;;60.47;31.98;;;;;;;16.66;42.13;103077.81;5014244;28;20114;-47